Time;durP1;ratioP1;P1;durP2;ratioP2;P2;SDS_P1;SDS_P2;PMS_P1;PMS_P2;Temp;Humidity;BMP_temperature;BMP_pressure;BME280_temperature;BME280_humidity;BME280_pressure;Samples;Min_cycle;Max_cycle;Signal;HPM_P1;HPM_P2
2023/06/03 00:00:08;;;;;;;1.77;1.23;;;;;;;;;;5074860;28;20455;-80
2023/06/03 00:02:35;;;;;;;3.73;2.10;;;;;;;;;;5069299;28;20482;-80
2023/06/03 00:05:03;;;;;;;3.57;1.47;;;;;;;;;;5078854;28;20438;-80
2023/06/03 00:07:29;;;;;;;2.53;1.43;;;;;;;;;;5073808;28;20917;-81
2023/06/03 00:09:57;;;;;;;2.20;1.00;;;;;;;;;;5074138;28;20443;-79
2023/06/03 00:12:23;;;;;;;3.33;1.17;;;;;;;;;;5082339;28;20465;-80
2023/06/03 00:14:50;;;;;;;2.27;1.40;;;;;;;;;;5079844;28;20454;-80
2023/06/03 00:17:16;;;;;;;2.37;1.07;;;;;;;;;;5073306;28;20471;-81
2023/06/03 00:19:42;;;;;;;2.87;1.67;;;;;;;;;;5076578;28;20466;-79
2023/06/03 00:22:09;;;;;;;2.07;1.60;;;;;;;;;;5061921;28;20482;-80
2023/06/03 00:24:35;;;;;;;3.17;1.30;;;;;;;;;;5075921;28;20446;-80
2023/06/03 00:27:03;;;;;;;1.63;1.37;;;;;;;;;;5075284;28;20477;-81
2023/06/03 00:29:30;;;;;;;1.47;1.37;;;;;;;;;;5076795;28;20462;-80
2023/06/03 00:31:56;;;;;;;3.63;2.10;;;;;;;;;;5071099;28;20439;-80
2023/06/03 00:34:23;;;;;;;1.57;1.47;;;;;;;;;;5080585;28;20482;-80
2023/06/03 00:36:49;;;;;;;4.87;2.00;;;;;;;;;;5078790;28;20451;-80
2023/06/03 00:39:16;;;;;;;2.60;1.87;;;;;;;;;;5074134;28;20473;-80
2023/06/03 00:41:42;;;;;;;2.07;1.87;;;;;;;;;;5080566;28;20486;-80
2023/06/03 00:44:10;;;;;;;1.60;1.37;;;;;;;;;;5073640;28;20858;-80
2023/06/03 00:46:36;;;;;;;1.63;1.43;;;;;;;;;;5071651;28;20439;-80
2023/06/03 00:49:03;;;;;;;2.43;1.70;;;;;;;;;;5075956;28;20476;-80
2023/06/03 00:51:31;;;;;;;3.97;1.33;;;;;;;;;;5076638;28;20455;-80
2023/06/03 00:53:58;;;;;;;2.93;1.50;;;;;;;;;;5079702;28;20479;-80
2023/06/03 00:56:25;;;;;;;2.50;1.40;;;;;;;;;;5073846;28;20451;-80
2023/06/03 00:58:51;;;;;;;2.87;1.20;;;;;;;;;;5077279;28;20481;-81
2023/06/03 01:01:21;;;;;;;1.97;1.30;;;;;;;;;;5082172;28;20883;-80
2023/06/03 01:03:48;;;;;;;2.83;1.70;;;;;;;;;;5076539;28;20476;-81
2023/06/03 01:06:18;;;;;;;89.77;39.70;;;;;;;;;;5073453;28;20447;-80
2023/06/03 01:08:50;;;;;;;90.83;62.80;;;;;;;;;;5073512;28;20474;-81
2023/06/03 01:11:21;;;;;;;95.57;29.60;;;;;;;;;;5065251;28;20483;-79
2023/06/03 01:13:50;;;;;;;2.97;1.40;;;;;;;;;;5068387;28;20475;-79
2023/06/03 01:16:17;;;;;;;3.63;1.30;;;;;;;;;;5075745;28;20440;-79
2023/06/03 01:18:47;;;;;;;1.93;1.60;;;;;;;;;;5069165;28;20483;-78
2023/06/03 01:21:13;;;;;;;3.57;3.30;;;;;;;;;;5078745;28;20489;-79
2023/06/03 01:23:44;;;;;;;3.13;1.80;;;;;;;;;;5080972;28;20515;-79
2023/06/03 01:26:11;;;;;;;2.20;1.40;;;;;;;;;;5079431;28;20451;-79
2023/06/03 01:28:38;;;;;;;23.43;18.30;;;;;;;;;;5079530;28;20470;-79
2023/06/03 01:31:05;;;;;;;168.47;51.37;;;;;;;;;;5075215;28;20949;-79
2023/06/03 01:33:33;;;;;;;2.53;1.90;;;;;;;;;;5073308;28;21043;-79
2023/06/03 01:36:02;;;;;;;20.53;17.93;;;;;;;;;;5077029;28;20437;-79
2023/06/03 01:38:28;;;;;;;17.27;2.40;;;;;;;;;;5073424;28;20478;-79
2023/06/03 01:40:56;;;;;;;29.90;6.50;;;;;;;;;;5080274;28;20439;-80
2023/06/03 01:43:22;;;;;;;14.13;1.93;;;;;;;;;;5077325;28;20466;-80
2023/06/03 01:45:49;;;;;;;15.87;2.20;;;;;;;;;;5077923;28;20464;-80
2023/06/03 01:48:16;;;;;;;2.30;1.77;;;;;;;;;;5076211;28;20483;-80
2023/06/03 01:50:42;;;;;;;5.23;2.07;;;;;;;;;;5079233;28;20455;-79
2023/06/03 01:53:09;;;;;;;10.33;2.10;;;;;;;;;;5080377;28;20475;-80
2023/06/03 01:55:36;;;;;;;3.67;2.30;;;;;;;;;;5077511;28;20473;-80
2023/06/03 01:58:03;;;;;;;4.83;1.70;;;;;;;;;;5078974;28;20463;-79
2023/06/03 02:00:30;;;;;;;1.13;1.03;;;;;;;;;;5077976;28;20439;-79
2023/06/03 02:02:56;;;;;;;2.20;1.30;;;;;;;;;;5077516;28;20483;-79
2023/06/03 02:05:22;;;;;;;1.53;1.20;;;;;;;;;;5083272;28;20477;-79
2023/06/03 02:07:49;;;;;;;3.10;1.70;;;;;;;;;;5079518;28;20527;-79
2023/06/03 02:10:16;;;;;;;2.70;1.80;;;;;;;;;;5082531;28;20447;-78
2023/06/03 02:12:44;;;;;;;13.90;2.17;;;;;;;;;;5074238;28;20477;-81
2023/06/03 02:15:12;;;;;;;7.07;2.07;;;;;;;;;;5079089;28;20459;-80
2023/06/03 02:17:38;;;;;;;17.93;2.30;;;;;;;;;;5073978;28;20483;-80
2023/06/03 02:20:06;;;;;;;20.77;2.20;;;;;;;;;;5073158;28;20941;-80
2023/06/03 02:22:33;;;;;;;10.17;1.83;;;;;;;;;;5084844;28;20470;-79
2023/06/03 02:24:59;;;;;;;2.40;1.87;;;;;;;;;;5079928;28;20458;-79
2023/06/03 02:27:27;;;;;;;5.20;1.63;;;;;;;;;;5076469;28;20473;-79
2023/06/03 02:29:54;;;;;;;1.53;1.30;;;;;;;;;;5077714;28;20458;-78
2023/06/03 02:32:22;;;;;;;2.60;1.77;;;;;;;;;;5077430;28;20482;-79
2023/06/03 02:34:48;;;;;;;2.80;1.70;;;;;;;;;;5077412;28;20454;-79
2023/06/03 02:37:15;;;;;;;2.60;1.70;;;;;;;;;;5075472;28;20479;-79
2023/06/03 02:39:42;;;;;;;1.90;1.43;;;;;;;;;;5082271;28;20492;-79
2023/06/03 02:42:09;;;;;;;2.70;1.60;;;;;;;;;;5079528;28;20847;-79
2023/06/03 02:44:35;;;;;;;5.20;1.20;;;;;;;;;;5072821;28;20442;-79
2023/06/03 02:47:02;;;;;;;1.80;1.60;;;;;;;;;;5082544;28;20482;-78
2023/06/03 02:49:29;;;;;;;2.00;1.23;;;;;;;;;;5081265;28;20443;-79
2023/06/03 02:51:56;;;;;;;2.23;1.70;;;;;;;;;;5080436;28;20474;-81
2023/06/03 02:54:23;;;;;;;5.53;1.30;;;;;;;;;;5074488;28;20822;-80
2023/06/03 02:56:49;;;;;;;2.30;1.50;;;;;;;;;;5075050;28;20447;-79
2023/06/03 02:59:16;;;;;;;1.43;1.30;;;;;;;;;;5073582;28;20479;-79
2023/06/03 03:01:42;;;;;;;2.10;1.63;;;;;;;;;;5074551;28;20486;-78
2023/06/03 03:04:09;;;;;;;1.77;1.67;;;;;;;;;;5076142;28;20467;-79
2023/06/03 03:06:37;;;;;;;2.60;1.60;;;;;;;;;;5079117;28;20457;-79
2023/06/03 03:09:04;;;;;;;1.83;1.67;;;;;;;;;;5074658;28;20510;-79
2023/06/03 03:11:30;;;;;;;3.00;1.87;;;;;;;;;;5081201;28;20466;-79
2023/06/03 03:13:58;;;;;;;2.47;2.10;;;;;;;;;;5085424;28;20474;-79
2023/06/03 03:16:24;;;;;;;1.57;1.30;;;;;;;;;;5077428;28;20537;-79
2023/06/03 03:18:51;;;;;;;3.23;1.43;;;;;;;;;;5076891;28;20930;-79
2023/06/03 03:21:17;;;;;;;3.43;1.57;;;;;;;;;;5073882;28;20503;-79
2023/06/03 03:23:45;;;;;;;3.57;1.67;;;;;;;;;;5073347;28;20475;-81
2023/06/03 03:26:13;;;;;;;3.93;1.57;;;;;;;;;;5077733;28;20445;-80
2023/06/03 03:28:40;;;;;;;1.40;1.30;;;;;;;;;;5082072;28;20532;-80
2023/06/03 03:31:08;;;;;;;1.87;1.63;;;;;;;;;;5083819;28;20442;-80
2023/06/03 03:33:34;;;;;;;1.13;1.03;;;;;;;;;;5072062;28;20478;-80
2023/06/03 03:36:08;;;;;;;1.33;1.23;;;;;;;;;;5082014;28;20462;-80
2023/06/03 03:38:35;;;;;;;5.57;1.67;;;;;;;;;;5071816;28;20471;-80
2023/06/03 03:41:05;;;;;;;1.83;1.60;;;;;;;;;;5076794;28;20447;-80
2023/06/03 03:43:32;;;;;;;3.07;1.33;;;;;;;;;;5080956;28;20469;-80
2023/06/03 03:45:58;;;;;;;3.70;1.77;;;;;;;;;;5074808;28;20447;-80
2023/06/03 03:48:27;;;;;;;3.27;1.70;;;;;;;;;;5077768;28;20481;-80
2023/06/03 03:50:54;;;;;;;2.23;1.50;;;;;;;;;;5070258;28;20450;-80
2023/06/03 03:53:22;;;;;;;2.00;1.53;;;;;;;;;;5083416;28;20986;-80
2023/06/03 03:55:49;;;;;;;2.27;1.50;;;;;;;;;;5074605;28;20951;-80
2023/06/03 03:58:30;;;;;;;1.90;1.40;;;;;;;;;;5077137;28;20476;-80
2023/06/03 04:00:59;;;;;;;2.70;1.50;;;;;;;;;;5072595;28;20446;-80
2023/06/03 04:03:25;;;;;;;1.50;1.37;;;;;;;;;;5072004;28;20483;-79
2023/06/03 04:05:52;;;;;;;2.63;1.90;;;;;;;;;;5071912;28;20466;-80
2023/06/03 04:08:36;;;;;;;3.63;2.17;;;;;;;;;;5077490;28;20483;-80
2023/06/03 04:11:03;;;;;;;9.90;1.80;;;;;;;;;;5069712;28;20834;-80
2023/06/03 04:13:30;;;;;;;3.40;1.53;;;;;;;;;;5069892;28;20498;-80
2023/06/03 04:16:01;;;;;;;1.40;1.30;;;;;;;;;;5067559;28;20447;-80
2023/06/03 04:18:27;;;;;;;2.37;1.53;;;;;;;;;;5074622;28;20487;-80
2023/06/03 04:20:55;;;;;;;5.30;2.00;;;;;;;;;;5076670;28;20450;-80
2023/06/03 04:23:26;;;;;;;3.10;1.40;;;;;;;;;;5079370;28;20473;-80
2023/06/03 04:25:53;;;;;;;4.70;1.60;;;;;;;;;;5074571;28;20450;-79
2023/06/03 04:28:22;;;;;;;5.80;2.10;;;;;;;;;;5075415;28;20477;-80
2023/06/03 04:30:48;;;;;;;2.80;1.70;;;;;;;;;;5071230;28;20549;-80
2023/06/03 04:33:16;;;;;;;2.00;1.60;;;;;;;;;;5066002;28;20483;-80
2023/06/03 04:35:42;;;;;;;2.50;1.63;;;;;;;;;;5076637;28;20445;-80
2023/06/03 04:38:09;;;;;;;2.10;1.67;;;;;;;;;;5076523;28;20840;-80
2023/06/03 04:40:37;;;;;;;1.70;1.50;;;;;;;;;;5075686;28;20936;-80
2023/06/03 04:43:03;;;;;;;1.43;1.33;;;;;;;;;;5072911;28;20485;-80
2023/06/03 04:45:32;;;;;;;12.23;2.17;;;;;;;;;;5071289;28;20551;-80
2023/06/03 04:48:01;;;;;;;1.37;1.27;;;;;;;;;;5083121;28;20470;-80
2023/06/03 04:50:34;;;;;;;2.80;1.70;;;;;;;;;;5073413;28;20601;-80
2023/06/03 04:53:01;;;;;;;2.17;1.70;;;;;;;;;;5076582;28;20528;-80
2023/06/03 04:55:27;;;;;;;1.83;1.60;;;;;;;;;;5074314;28;20458;-80
2023/06/03 04:57:54;;;;;;;3.30;1.97;;;;;;;;;;5078432;28;20479;-80
2023/06/03 05:00:21;;;;;;;3.10;2.10;;;;;;;;;;5062256;28;20452;-80
2023/06/03 05:02:54;;;;;;;2.30;1.70;;;;;;;;;;5077401;28;21018;-80
2023/06/03 05:05:21;;;;;;;1.90;1.50;;;;;;;;;;5081599;28;20481;-82
2023/06/03 05:07:49;;;;;;;1.57;1.47;;;;;;;;;;5080497;28;20479;-79
2023/06/03 05:10:16;;;;;;;3.80;1.50;;;;;;;;;;5082571;28;20963;-79
2023/06/03 05:12:42;;;;;;;2.00;1.53;;;;;;;;;;5077722;28;20482;-79
2023/06/03 05:15:10;;;;;;;2.17;1.73;;;;;;;;;;5084231;28;20832;-79
2023/06/03 05:17:38;;;;;;;3.53;2.33;;;;;;;;;;5076865;28;20562;-79
2023/06/03 05:20:05;;;;;;;2.00;1.80;;;;;;;;;;5082607;28;20438;-79
2023/06/03 05:22:31;;;;;;;9.47;1.50;;;;;;;;;;5087997;28;20912;-79
2023/06/03 05:24:59;;;;;;;2.30;1.63;;;;;;;;;;5084685;28;20441;-79
2023/06/03 05:27:26;;;;;;;2.30;1.87;;;;;;;;;;5079624;28;20846;-79
2023/06/03 05:29:52;;;;;;;5.40;2.80;;;;;;;;;;5081700;28;20832;-79
2023/06/03 05:32:18;;;;;;;2.30;2.10;;;;;;;;;;5076542;28;20472;-79
2023/06/03 05:34:45;;;;;;;4.40;2.00;;;;;;;;;;5080538;28;20442;-78
2023/06/03 05:37:11;;;;;;;5.37;1.63;;;;;;;;;;5076709;28;20471;-79
2023/06/03 05:39:37;;;;;;;13.40;2.20;;;;;;;;;;5083673;28;20453;-79
2023/06/03 05:42:06;;;;;;;2.93;1.60;;;;;;;;;;5079602;28;20937;-79
2023/06/03 05:44:32;;;;;;;4.03;1.63;;;;;;;;;;5080097;28;20546;-78
2023/06/03 05:46:59;;;;;;;2.57;1.60;;;;;;;;;;5078035;28;20482;-79
2023/06/03 05:49:25;;;;;;;3.17;1.30;;;;;;;;;;5077635;28;20466;-79
2023/06/03 05:51:52;;;;;;;3.67;2.23;;;;;;;;;;5074593;28;20451;-78
2023/06/03 05:54:18;;;;;;;1.80;1.70;;;;;;;;;;5080350;28;20470;-79
2023/06/03 05:56:44;;;;;;;3.10;2.07;;;;;;;;;;5083949;28;20446;-79
2023/06/03 05:59:12;;;;;;;2.20;1.53;;;;;;;;;;5080851;28;20466;-79
2023/06/03 06:01:38;;;;;;;2.07;1.60;;;;;;;;;;5071170;28;20459;-79
2023/06/03 06:04:05;;;;;;;2.10;1.63;;;;;;;;;;5076605;28;21151;-79
2023/06/03 06:06:31;;;;;;;2.00;1.70;;;;;;;;;;5084620;28;20806;-79
2023/06/03 06:08:58;;;;;;;2.13;1.63;;;;;;;;;;5082024;28;20483;-79
2023/06/03 06:11:24;;;;;;;7.20;1.77;;;;;;;;;;5079806;28;20455;-79
2023/06/03 06:13:50;;;;;;;5.50;1.97;;;;;;;;;;5082322;28;20459;-79
2023/06/03 06:16:18;;;;;;;4.23;1.77;;;;;;;;;;5083415;28;20449;-79
2023/06/03 06:18:44;;;;;;;9.87;2.43;;;;;;;;;;5077595;28;20482;-79
2023/06/03 06:21:10;;;;;;;2.57;1.77;;;;;;;;;;5074175;28;20451;-79
2023/06/03 06:23:38;;;;;;;5.07;2.13;;;;;;;;;;5075941;28;20471;-79
2023/06/03 06:26:05;;;;;;;6.23;1.93;;;;;;;;;;5079147;28;20463;-79
2023/06/03 06:28:31;;;;;;;2.70;1.73;;;;;;;;;;5073799;28;20478;-79
2023/06/03 06:31:01;;;;;;;2.43;1.80;;;;;;;;;;5088286;28;20446;-79
2023/06/03 06:33:29;;;;;;;7.03;2.10;;;;;;;;;;5076198;28;20459;-79
2023/06/03 06:35:56;;;;;;;2.53;2.33;;;;;;;;;;5074284;28;20445;-78
2023/06/03 06:38:23;;;;;;;2.60;2.00;;;;;;;;;;5077215;28;20463;-79
2023/06/03 06:40:50;;;;;;;1.97;1.60;;;;;;;;;;5075955;28;20470;-79
2023/06/03 06:43:21;;;;;;;1.83;1.50;;;;;;;;;;5088631;28;20478;-79
2023/06/03 06:45:47;;;;;;;3.43;2.10;;;;;;;;;;5076801;28;20434;-79
2023/06/03 06:48:14;;;;;;;2.13;1.50;;;;;;;;;;5075771;28;20482;-79
2023/06/03 06:50:55;;;;;;;3.40;2.03;;;;;;;;;;5081078;28;20446;-79
2023/06/03 06:53:24;;;;;;;2.20;1.73;;;;;;;;;;5075089;28;20442;-79
2023/06/03 06:55:52;;;;;;;3.60;2.10;;;;;;;;;;5083231;28;20425;-79
2023/06/03 06:58:19;;;;;;;2.27;1.67;;;;;;;;;;5075047;28;20537;-79
2023/06/03 07:00:46;;;;;;;3.40;2.17;;;;;;;;;;5077438;28;20434;-79
2023/06/03 07:03:13;;;;;;;2.33;1.67;;;;;;;;;;5074554;28;20993;-79
2023/06/03 07:05:39;;;;;;;2.07;1.80;;;;;;;;;;5074612;28;20409;-79
2023/06/03 07:08:07;;;;;;;3.37;2.30;;;;;;;;;;5080482;28;20485;-79
2023/06/03 07:10:35;;;;;;;2.20;1.70;;;;;;;;;;5073194;28;20960;-80
2023/06/03 07:13:02;;;;;;;2.97;1.70;;;;;;;;;;5078202;28;21053;-79
2023/06/03 07:15:29;;;;;;;2.87;1.63;;;;;;;;;;5077053;28;20430;-80
2023/06/03 07:17:59;;;;;;;1.93;1.60;;;;;;;;;;5073502;28;20858;-79
2023/06/03 07:20:29;;;;;;;2.50;1.60;;;;;;;;;;5080132;28;20450;-79
2023/06/03 07:22:56;;;;;;;13.10;2.23;;;;;;;;;;5071344;28;20446;-79
2023/06/03 07:25:30;;;;;;;1.73;1.10;;;;;;;;;;5076245;28;20429;-79
2023/06/03 07:27:58;;;;;;;1.50;1.30;;;;;;;;;;5082014;28;20478;-79
2023/06/03 07:30:24;;;;;;;6.90;1.40;;;;;;;;;;5072708;28;20936;-79
2023/06/03 07:32:51;;;;;;;1.33;1.23;;;;;;;;;;5075064;28;20474;-79
2023/06/03 07:35:19;;;;;;;2.40;1.20;;;;;;;;;;5079379;28;20455;-79
2023/06/03 07:37:46;;;;;;;2.10;1.37;;;;;;;;;;5077110;28;20478;-80
2023/06/03 07:40:15;;;;;;;2.20;1.07;;;;;;;;;;5078309;28;20429;-79
2023/06/03 07:42:43;;;;;;;2.07;1.20;;;;;;;;;;5074902;28;20521;-80
2023/06/03 07:45:12;;;;;;;6.93;1.93;;;;;;;;;;5077137;28;20486;-79
2023/06/03 07:47:39;;;;;;;1.83;1.10;;;;;;;;;;5086110;28;20469;-79
2023/06/03 07:50:14;;;;;;;2.80;1.53;;;;;;;;;;5082952;28;20446;-79
2023/06/03 07:52:41;;;;;;;4.03;1.80;;;;;;;;;;5078929;28;20466;-79
2023/06/03 07:55:08;;;;;;;2.33;1.13;;;;;;;;;;5064438;28;20485;-79
2023/06/03 07:57:37;;;;;;;1.30;1.07;;;;;;;;;;5069412;28;20478;-79
2023/06/03 08:00:05;;;;;;;2.10;1.10;;;;;;;;;;5071160;28;20438;-79
2023/06/03 08:02:36;;;;;;;1.60;1.10;;;;;;;;;;5076825;28;20496;-79
2023/06/03 08:05:05;;;;;;;1.83;1.37;;;;;;;;;;5086584;28;20477;-79
2023/06/03 08:07:32;;;;;;;1.60;1.23;;;;;;;;;;5075627;28;20494;-79
2023/06/03 08:09:59;;;;;;;2.30;1.17;;;;;;;;;;5076810;28;20454;-79
2023/06/03 08:12:29;;;;;;;1.57;1.00;;;;;;;;;;5077136;28;20470;-77
2023/06/03 08:14:57;;;;;;;3.03;1.27;;;;;;;;;;5081392;28;20439;-79
2023/06/03 08:17:36;;;;;;;1.93;0.97;;;;;;;;;;5069688;28;20476;-79
2023/06/03 08:20:08;;;;;;;1.20;0.93;;;;;;;;;;5067840;28;20442;-80
2023/06/03 08:22:40;;;;;;;1.47;1.27;;;;;;;;;;5075340;28;20520;-80
2023/06/03 08:25:07;;;;;;;2.10;1.10;;;;;;;;;;5076106;28;20463;-80
2023/06/03 08:27:33;;;;;;;2.07;1.00;;;;;;;;;;5077505;28;20471;-78
2023/06/03 08:30:03;;;;;;;2.07;1.30;;;;;;;;;;5075538;28;20450;-78
2023/06/03 08:32:29;;;;;;;1.77;1.27;;;;;;;;;;5071406;28;20476;-79
2023/06/03 08:34:56;;;;;;;2.23;1.10;;;;;;;;;;5087100;28;20446;-80
2023/06/03 08:37:23;;;;;;;2.40;1.00;;;;;;;;;;5074199;28;20497;-78
2023/06/03 08:39:50;;;;;;;2.60;1.10;;;;;;;;;;5072144;28;20447;-78
2023/06/03 08:42:20;;;;;;;1.73;0.63;;;;;;;;;;5078878;28;20467;-79
2023/06/03 08:44:49;;;;;;;1.10;0.90;;;;;;;;;;5069918;28;20467;-78
2023/06/03 08:47:20;;;;;;;1.33;1.20;;;;;;;;;;5075437;28;20459;-80
2023/06/03 08:49:51;;;;;;;3.03;1.47;;;;;;;;;;5077398;28;20958;-80
2023/06/03 08:52:18;;;;;;;5.97;1.37;;;;;;;;;;5073643;28;20470;-77
2023/06/03 08:54:47;;;;;;;3.30;1.00;;;;;;;;;;5074523;28;20462;-80
2023/06/03 08:57:19;;;;;;;1.70;0.93;;;;;;;;;;5071508;28;20463;-80
2023/06/03 08:59:47;;;;;;;2.47;1.30;;;;;;;;;;5073360;28;20455;-79
2023/06/03 09:02:14;;;;;;;1.17;1.07;;;;;;;;;;5081239;28;20457;-79
2023/06/03 09:04:41;;;;;;;2.60;0.90;;;;;;;;;;5077072;28;20489;-80
2023/06/03 09:07:09;;;;;;;1.60;1.20;;;;;;;;;;5078981;28;20986;-80
2023/06/03 09:09:36;;;;;;;2.97;1.20;;;;;;;;;;5070516;28;20929;-78
2023/06/03 09:12:04;;;;;;;0.93;0.87;;;;;;;;;;5072357;28;20466;-78
2023/06/03 09:14:31;;;;;;;2.20;1.30;;;;;;;;;;5072023;28;20530;-80
2023/06/03 09:16:58;;;;;;;1.93;1.00;;;;;;;;;;5071883;28;20494;-78
2023/06/03 09:19:26;;;;;;;4.17;1.17;;;;;;;;;;5074608;28;20455;-79
2023/06/03 09:21:56;;;;;;;3.03;1.10;;;;;;;;;;5077075;28;20431;-80
2023/06/03 09:24:22;;;;;;;1.47;0.80;;;;;;;;;;5071195;28;20558;-80
2023/06/03 09:26:48;;;;;;;3.27;0.90;;;;;;;;;;5047343;28;20447;-79
2023/06/03 09:29:18;;;;;;;2.70;1.17;;;;;;;;;;5075951;28;20475;-80
2023/06/03 09:31:44;;;;;;;1.17;1.07;;;;;;;;;;5072732;28;20446;-78
2023/06/03 09:34:11;;;;;;;1.80;1.40;;;;;;;;;;5052564;28;20476;-79
2023/06/03 09:36:44;;;;;;;2.13;1.40;;;;;;;;;;5056247;28;20451;-78
2023/06/03 09:39:10;;;;;;;2.60;0.90;;;;;;;;;;5044211;28;20487;-78
2023/06/03 09:41:37;;;;;;;2.00;1.37;;;;;;;;;;5054517;28;20455;-79
2023/06/03 09:44:08;;;;;;;3.73;1.27;;;;;;;;;;5054553;28;20995;-79
2023/06/03 09:46:37;;;;;;;1.13;0.90;;;;;;;;;;5048040;28;20460;-80
2023/06/03 09:49:10;;;;;;;3.37;1.60;;;;;;;;;;5051403;28;20475;-80
2023/06/03 09:51:40;;;;;;;1.30;1.20;;;;;;;;;;5056348;28;20442;-79
2023/06/03 09:54:10;;;;;;;1.60;1.20;;;;;;;;;;5052685;28;20469;-80
2023/06/03 09:56:37;;;;;;;2.80;1.13;;;;;;;;;;5053317;28;21032;-79
2023/06/03 09:59:13;;;;;;;1.57;1.17;;;;;;;;;;5046695;28;20503;-79
2023/06/03 10:01:41;;;;;;;1.90;1.20;;;;;;;;;;5056698;28;20443;-79
2023/06/03 10:04:07;;;;;;;3.70;2.20;;;;;;;;;;5060130;28;21006;-80
2023/06/03 10:06:35;;;;;;;2.23;1.40;;;;;;;;;;5057117;28;20468;-80
2023/06/03 10:09:17;;;;;;;1.13;0.87;;;;;;;;;;5057737;28;20483;-80
2023/06/03 10:11:46;;;;;;;4.43;1.20;;;;;;;;;;5062335;28;20454;-80
2023/06/03 10:14:14;;;;;;;2.67;1.40;;;;;;;;;;5080051;28;20987;-80
2023/06/03 10:16:41;;;;;;;1.83;1.23;;;;;;;;;;5075457;28;20462;-80
2023/06/03 10:19:08;;;;;;;2.90;1.37;;;;;;;;;;5076614;28;20470;-79
2023/06/03 10:21:37;;;;;;;3.37;1.33;;;;;;;;;;5077985;28;20453;-80
2023/06/03 10:24:05;;;;;;;3.90;1.13;;;;;;;;;;5054592;28;20475;-80
2023/06/03 10:26:33;;;;;;;4.50;1.27;;;;;;;;;;5058729;28;20837;-78
2023/06/03 10:29:01;;;;;;;7.30;1.43;;;;;;;;;;5055310;28;21017;-80
2023/06/03 10:31:28;;;;;;;3.10;1.07;;;;;;;;;;5056210;28;20951;-80
2023/06/03 10:33:56;;;;;;;2.80;1.20;;;;;;;;;;5055532;28;20480;-80
2023/06/03 10:36:24;;;;;;;1.87;1.03;;;;;;;;;;5056192;28;20942;-80
2023/06/03 10:38:51;;;;;;;2.03;1.53;;;;;;;;;;5054721;28;20583;-80
2023/06/03 10:41:19;;;;;;;1.30;1.20;;;;;;;;;;5047099;28;20498;-80
2023/06/03 10:43:45;;;;;;;1.10;1.00;;;;;;;;;;5075187;28;20472;-78
2023/06/03 10:46:12;;;;;;;5.67;1.50;;;;;;;;;;5080654;28;20516;-80
2023/06/03 10:48:39;;;;;;;3.27;1.70;;;;;;;;;;5080450;28;20493;-78
2023/06/03 10:51:16;;;;;;;13.63;4.10;;;;;;;;;;5073536;28;20462;-79
2023/06/03 10:53:50;;;;;;;2.90;1.83;;;;;;;;;;5074350;28;20466;-80
2023/06/03 10:56:21;;;;;;;2.10;1.07;;;;;;;;;;5075616;28;20468;-80
2023/06/03 10:58:48;;;;;;;2.37;1.50;;;;;;;;;;5076389;28;20477;-79
2023/06/03 11:01:14;;;;;;;6.70;2.20;;;;;;;;;;5076517;28;20463;-79
2023/06/03 11:03:55;;;;;;;1.83;1.10;;;;;;;;;;5052824;28;20475;-80
2023/06/03 11:06:42;;;;;;;1.70;1.30;;;;;;;;;;5057616;28;20452;-79
2023/06/03 11:09:12;;;;;;;2.00;1.33;;;;;;;;;;5057102;28;20480;-79
2023/06/03 11:11:58;;;;;;;4.03;1.37;;;;;;;;;;5059641;28;20471;-80
2023/06/03 11:14:48;;;;;;;1.70;1.20;;;;;;;;;;5072830;28;20561;-79
2023/06/03 11:17:15;;;;;;;2.70;1.50;;;;;;;;;;5078344;28;20503;-79
2023/06/03 11:19:49;;;;;;;4.73;1.90;;;;;;;;;;5078538;28;20946;-80
2023/06/03 11:22:38;;;;;;;3.43;1.37;;;;;;;;;;5081241;28;20467;-79
2023/06/03 11:25:05;;;;;;;1.27;0.97;;;;;;;;;;5076133;28;21006;-80
2023/06/03 11:27:31;;;;;;;1.70;1.00;;;;;;;;;;5074584;28;20470;-80
2023/06/03 11:29:59;;;;;;;1.63;1.50;;;;;;;;;;5075812;28;20987;-79
2023/06/03 11:32:25;;;;;;;4.83;1.63;;;;;;;;;;5073415;28;20469;-79
2023/06/03 11:35:12;;;;;;;4.20;0.90;;;;;;;;;;5081894;28;20825;-78
2023/06/03 11:37:53;;;;;;;5.73;1.30;;;;;;;;;;5077847;28;20470;-79
2023/06/03 11:40:20;;;;;;;2.10;1.20;;;;;;;;;;5077097;28;20465;-79
2023/06/03 11:43:01;;;;;;;3.10;2.17;;;;;;;;;;5074156;28;21003;-79
2023/06/03 11:45:29;;;;;;;1.93;1.50;;;;;;;;;;5079242;28;20483;-80
2023/06/03 11:47:55;;;;;;;1.20;1.10;;;;;;;;;;5081974;28;20485;-79
2023/06/03 11:50:23;;;;;;;3.67;1.30;;;;;;;;;;5078039;28;20463;-79
2023/06/03 11:52:49;;;;;;;1.93;1.33;;;;;;;;;;5073686;28;20463;-79
2023/06/03 11:55:23;;;;;;;4.37;1.17;;;;;;;;;;5075719;28;20465;-79
2023/06/03 11:57:50;;;;;;;1.97;1.47;;;;;;;;;;5071134;28;20478;-78
2023/06/03 12:00:18;;;;;;;1.47;1.20;;;;;;;;;;5077204;28;20972;-78
2023/06/03 12:02:45;;;;;;;1.90;1.23;;;;;;;;;;5078884;28;20470;-78
2023/06/03 12:05:12;;;;;;;6.03;1.40;;;;;;;;;;5077754;28;20478;-79
2023/06/03 12:07:39;;;;;;;1.27;1.17;;;;;;;;;;5070384;28;20474;-78
2023/06/03 12:10:05;;;;;;;2.80;1.30;;;;;;;;;;5080545;28;20975;-78
2023/06/03 12:12:33;;;;;;;2.90;1.30;;;;;;;;;;5068546;28;20467;-79
2023/06/03 12:15:04;;;;;;;2.47;1.33;;;;;;;;;;5077303;28;20461;-78
2023/06/03 12:17:31;;;;;;;4.17;1.53;;;;;;;;;;5074779;28;20886;-77
2023/06/03 12:20:03;;;;;;;2.40;1.60;;;;;;;;;;5073707;28;20462;-78
2023/06/03 12:22:29;;;;;;;3.20;1.10;;;;;;;;;;5072959;28;20474;-77
2023/06/03 12:24:56;;;;;;;10.20;1.20;;;;;;;;;;5077290;28;20482;-78
2023/06/03 12:27:24;;;;;;;2.70;1.00;;;;;;;;;;5080279;28;20987;-78
2023/06/03 12:29:53;;;;;;;3.60;1.30;;;;;;;;;;5072858;28;20478;-78
2023/06/03 12:32:20;;;;;;;3.53;1.63;;;;;;;;;;5073145;28;20482;-78
2023/06/03 12:34:47;;;;;;;1.53;1.10;;;;;;;;;;5070935;28;20525;-77
2023/06/03 12:37:26;;;;;;;6.00;1.30;;;;;;;;;;5073135;28;21006;-77
2023/06/03 12:39:53;;;;;;;9.23;1.57;;;;;;;;;;5073671;28;20443;-78
2023/06/03 12:42:19;;;;;;;10.30;2.20;;;;;;;;;;5074642;28;20467;-77
2023/06/03 12:44:47;;;;;;;2.63;1.50;;;;;;;;;;5081141;28;20528;-78
2023/06/03 12:47:15;;;;;;;2.73;1.30;;;;;;;;;;5080760;28;20457;-78
2023/06/03 12:49:42;;;;;;;4.00;1.87;;;;;;;;;;5079611;28;20439;-78
2023/06/03 12:52:12;;;;;;;5.13;1.60;;;;;;;;;;5076624;28;20450;-78
2023/06/03 12:54:38;;;;;;;11.50;1.73;;;;;;;;;;5076997;28;20458;-77
2023/06/03 12:57:05;;;;;;;6.73;1.67;;;;;;;;;;5081549;28;20473;-78
2023/06/03 12:59:31;;;;;;;2.33;1.10;;;;;;;;;;5070858;28;20470;-78
2023/06/03 13:01:58;;;;;;;3.57;1.40;;;;;;;;;;5070778;28;20454;-79
2023/06/03 13:04:26;;;;;;;1.90;1.63;;;;;;;;;;5075267;28;20450;-78
2023/06/03 13:06:53;;;;;;;1.90;1.37;;;;;;;;;;5076068;28;20517;-78
2023/06/03 13:09:19;;;;;;;3.23;1.37;;;;;;;;;;5083148;28;20968;-79
2023/06/03 13:11:45;;;;;;;2.23;1.30;;;;;;;;;;5072098;28;20481;-78
2023/06/03 13:14:11;;;;;;;2.47;1.87;;;;;;;;;;5070997;28;20478;-77
2023/06/03 13:16:38;;;;;;;1.60;1.40;;;;;;;;;;5076326;28;20458;-78
2023/06/03 13:19:05;;;;;;;4.20;1.47;;;;;;;;;;5077285;28;20479;-78
2023/06/03 13:21:32;;;;;;;3.13;1.50;;;;;;;;;;5076875;28;20447;-78
2023/06/03 13:23:59;;;;;;;5.93;1.57;;;;;;;;;;5076560;28;20478;-78
2023/06/03 13:26:26;;;;;;;27.53;5.47;;;;;;;;;;5080478;28;20593;-79
2023/06/03 13:28:52;;;;;;;3.83;1.50;;;;;;;;;;5078420;28;21042;-78
2023/06/03 13:31:18;;;;;;;1.20;1.03;;;;;;;;;;5081049;28;20886;-79
2023/06/03 13:33:46;;;;;;;1.90;1.60;;;;;;;;;;5079977;28;20471;-78
2023/06/03 13:36:13;;;;;;;3.70;1.30;;;;;;;;;;5079916;28;20455;-78
2023/06/03 13:38:40;;;;;;;2.43;1.43;;;;;;;;;;5085113;28;20462;-79
2023/06/03 13:41:07;;;;;;;4.50;1.60;;;;;;;;;;5084433;28;20897;-78
2023/06/03 13:43:33;;;;;;;7.30;2.00;;;;;;;;;;5077340;28;20478;-79
2023/06/03 13:45:59;;;;;;;2.40;1.50;;;;;;;;;;5077286;28;20490;-79
2023/06/03 13:48:27;;;;;;;2.33;1.67;;;;;;;;;;5080344;28;20901;-79
2023/06/03 13:50:55;;;;;;;3.23;1.37;;;;;;;;;;5073479;28;20459;-80
2023/06/03 13:53:21;;;;;;;2.23;2.03;;;;;;;;;;5074759;28;21072;-79
2023/06/03 13:55:49;;;;;;;3.03;1.40;;;;;;;;;;5076391;28;20461;-78
2023/06/03 13:58:16;;;;;;;3.27;1.30;;;;;;;;;;5068680;28;20501;-78
2023/06/03 14:00:42;;;;;;;1.97;1.00;;;;;;;;;;5083725;28;20459;-79
2023/06/03 14:03:09;;;;;;;3.30;1.47;;;;;;;;;;5074215;28;20474;-79
2023/06/03 14:05:35;;;;;;;2.50;1.30;;;;;;;;;;5079577;28;20578;-79
2023/06/03 14:08:02;;;;;;;3.30;1.93;;;;;;;;;;5078866;28;20485;-79
2023/06/03 14:10:30;;;;;;;2.27;1.50;;;;;;;;;;5083122;28;20443;-79
2023/06/03 14:12:58;;;;;;;2.07;1.40;;;;;;;;;;5077254;28;21029;-78
2023/06/03 14:15:25;;;;;;;3.83;1.40;;;;;;;;;;5079181;28;20494;-78
2023/06/03 14:17:52;;;;;;;2.27;1.43;;;;;;;;;;5088956;28;20485;-78
2023/06/03 14:20:18;;;;;;;1.90;1.57;;;;;;;;;;5077494;28;20470;-78
2023/06/03 14:22:45;;;;;;;1.73;1.30;;;;;;;;;;5074465;28;20479;-81
2023/06/03 14:25:11;;;;;;;2.40;1.50;;;;;;;;;;5083323;28;20851;-80
2023/06/03 14:27:37;;;;;;;2.40;1.67;;;;;;;;;;5078847;28;20482;-80
2023/06/03 14:30:07;;;;;;;4.43;1.53;;;;;;;;;;5089192;28;20447;-80
2023/06/03 14:32:34;;;;;;;2.17;1.20;;;;;;;;;;5084581;28;20474;-79
2023/06/03 14:35:07;;;;;;;11.63;2.33;;;;;;;;;;5081600;28;20443;-80
2023/06/03 14:37:33;;;;;;;4.10;2.00;;;;;;;;;;5076679;28;20501;-81
2023/06/03 14:39:59;;;;;;;7.60;2.00;;;;;;;;;;5084077;28;20477;-80
2023/06/03 14:42:26;;;;;;;2.10;1.20;;;;;;;;;;5077202;28;20463;-80
2023/06/03 14:44:52;;;;;;;2.90;1.30;;;;;;;;;;5076024;28;20883;-81